sensor_id;sensor_type;location;lat;lon;timestamp;P1;durP1;ratioP1;P2;durP2;ratioP2
50769;SDS011;36740;48.698;11.472;2022-09-09T00:00:33;3.72;;;1.95;;
50769;SDS011;36740;48.698;11.472;2022-09-09T00:03:45;4.93;;;2.38;;
50769;SDS011;36740;48.698;11.472;2022-09-09T00:06:31;4.72;;;2.97;;
50769;SDS011;36740;48.698;11.472;2022-09-09T00:09:27;2.05;;;1.85;;
50769;SDS011;36740;48.698;11.472;2022-09-09T00:15:37;29.67;;;3.80;;
50769;SDS011;36740;48.698;11.472;2022-09-09T00:18:25;5.95;;;3.28;;
50769;SDS011;36740;48.698;11.472;2022-09-09T00:21:15;3.25;;;2.40;;
50769;SDS011;36740;48.698;11.472;2022-09-09T00:24:01;3.03;;;2.33;;
50769;SDS011;36740;48.698;11.472;2022-09-09T00:26:53;11.90;;;2.47;;
50769;SDS011;36740;48.698;11.472;2022-09-09T00:29:43;7.55;;;2.22;;
50769;SDS011;36740;48.698;11.472;2022-09-09T00:32:30;3.65;;;2.20;;
50769;SDS011;36740;48.698;11.472;2022-09-09T00:35:18;3.83;;;2.20;;
50769;SDS011;36740;48.698;11.472;2022-09-09T00:44:06;2.42;;;1.80;;
50769;SDS011;36740;48.698;11.472;2022-09-09T00:47:01;3.55;;;2.53;;
50769;SDS011;36740;48.698;11.472;2022-09-09T00:53:00;1.90;;;1.58;;
50769;SDS011;36740;48.698;11.472;2022-09-09T00:58:33;4.30;;;2.35;;
50769;SDS011;36740;48.698;11.472;2022-09-09T01:01:19;3.03;;;2.22;;
50769;SDS011;36740;48.698;11.472;2022-09-09T01:04:05;2.65;;;1.77;;
50769;SDS011;36740;48.698;11.472;2022-09-09T01:06:56;12.48;;;2.45;;
50769;SDS011;36740;48.698;11.472;2022-09-09T01:09:54;4.32;;;2.33;;
50769;SDS011;36740;48.698;11.472;2022-09-09T01:12:42;4.25;;;1.80;;
50769;SDS011;36740;48.698;11.472;2022-09-09T01:15:29;2.13;;;1.77;;
50769;SDS011;36740;48.698;11.472;2022-09-09T01:18:17;2.63;;;1.70;;
50769;SDS011;36740;48.698;11.472;2022-09-09T01:27:11;25.73;;;2.53;;
50769;SDS011;36740;48.698;11.472;2022-09-09T01:29:58;2.80;;;2.03;;
50769;SDS011;36740;48.698;11.472;2022-09-09T01:32:46;9.13;;;2.88;;
50769;SDS011;36740;48.698;11.472;2022-09-09T01:38:17;3.13;;;1.70;;
50769;SDS011;36740;48.698;11.472;2022-09-09T01:41:03;2.45;;;1.95;;
50769;SDS011;36740;48.698;11.472;2022-09-09T01:43:49;3.40;;;2.35;;
50769;SDS011;36740;48.698;11.472;2022-09-09T01:46:35;4.75;;;2.03;;
50769;SDS011;36740;48.698;11.472;2022-09-09T01:49:21;7.53;;;2.55;;
50769;SDS011;36740;48.698;11.472;2022-09-09T01:52:07;2.17;;;1.92;;
50769;SDS011;36740;48.698;11.472;2022-09-09T01:54:54;3.13;;;2.45;;
50769;SDS011;36740;48.698;11.472;2022-09-09T01:57:43;3.22;;;2.10;;
50769;SDS011;36740;48.698;11.472;2022-09-09T02:00:29;3.17;;;2.58;;
50769;SDS011;36740;48.698;11.472;2022-09-09T02:03:23;4.85;;;2.67;;
50769;SDS011;36740;48.698;11.472;2022-09-09T02:06:26;3.70;;;2.22;;
50769;SDS011;36740;48.698;11.472;2022-09-09T02:09:12;3.17;;;2.15;;
50769;SDS011;36740;48.698;11.472;2022-09-09T02:12:11;7.88;;;3.55;;
50769;SDS011;36740;48.698;11.472;2022-09-09T02:15:07;4.68;;;2.75;;
50769;SDS011;36740;48.698;11.472;2022-09-09T02:17:56;2.22;;;2.03;;
50769;SDS011;36740;48.698;11.472;2022-09-09T02:20:43;1.60;;;1.50;;
50769;SDS011;36740;48.698;11.472;2022-09-09T02:23:30;2.83;;;1.98;;
50769;SDS011;36740;48.698;11.472;2022-09-09T02:26:16;4.57;;;2.40;;
50769;SDS011;36740;48.698;11.472;2022-09-09T02:29:08;4.97;;;2.45;;
50769;SDS011;36740;48.698;11.472;2022-09-09T02:31:55;2.55;;;2.15;;
50769;SDS011;36740;48.698;11.472;2022-09-09T02:34:43;4.20;;;2.13;;
50769;SDS011;36740;48.698;11.472;2022-09-09T02:37:35;2.63;;;1.67;;
50769;SDS011;36740;48.698;11.472;2022-09-09T02:40:21;2.88;;;1.85;;
50769;SDS011;36740;48.698;11.472;2022-09-09T02:43:07;4.10;;;1.73;;
50769;SDS011;36740;48.698;11.472;2022-09-09T02:52:05;4.28;;;2.47;;
50769;SDS011;36740;48.698;11.472;2022-09-09T02:54:43;4.05;;;2.78;;
50769;SDS011;36740;48.698;11.472;2022-09-09T02:57:29;4.75;;;2.42;;
50769;SDS011;36740;48.698;11.472;2022-09-09T03:00:21;3.42;;;2.80;;
50769;SDS011;36740;48.698;11.472;2022-09-09T03:03:07;4.38;;;2.80;;
50769;SDS011;36740;48.698;11.472;2022-09-09T03:05:54;4.03;;;1.90;;
50769;SDS011;36740;48.698;11.472;2022-09-09T03:08:40;3.22;;;2.55;;
50769;SDS011;36740;48.698;11.472;2022-09-09T03:11:26;2.25;;;1.65;;
50769;SDS011;36740;48.698;11.472;2022-09-09T03:14:12;4.38;;;3.30;;
50769;SDS011;36740;48.698;11.472;2022-09-09T03:16:58;4.53;;;2.15;;
50769;SDS011;36740;48.698;11.472;2022-09-09T03:19:46;3.50;;;1.95;;
50769;SDS011;36740;48.698;11.472;2022-09-09T03:22:34;2.80;;;1.92;;
50769;SDS011;36740;48.698;11.472;2022-09-09T03:25:20;2.53;;;1.85;;
50769;SDS011;36740;48.698;11.472;2022-09-09T03:28:07;3.08;;;2.20;;
50769;SDS011;36740;48.698;11.472;2022-09-09T03:30:57;2.75;;;2.08;;
50769;SDS011;36740;48.698;11.472;2022-09-09T03:33:42;7.50;;;1.75;;
50769;SDS011;36740;48.698;11.472;2022-09-09T03:36:28;3.95;;;2.47;;
50769;SDS011;36740;48.698;11.472;2022-09-09T03:39:14;2.35;;;1.92;;
50769;SDS011;36740;48.698;11.472;2022-09-09T03:42:00;3.60;;;1.42;;
50769;SDS011;36740;48.698;11.472;2022-09-09T03:44:49;1.58;;;1.48;;
50769;SDS011;36740;48.698;11.472;2022-09-09T03:47:35;2.67;;;1.90;;
50769;SDS011;36740;48.698;11.472;2022-09-09T03:50:21;8.15;;;1.63;;
50769;SDS011;36740;48.698;11.472;2022-09-09T03:53:07;3.17;;;2.33;;
50769;SDS011;36740;48.698;11.472;2022-09-09T03:55:53;2.60;;;1.83;;
50769;SDS011;36740;48.698;11.472;2022-09-09T03:58:44;3.30;;;2.33;;
50769;SDS011;36740;48.698;11.472;2022-09-09T04:01:30;7.72;;;2.25;;
50769;SDS011;36740;48.698;11.472;2022-09-09T04:04:16;4.78;;;2.17;;
50769;SDS011;36740;48.698;11.472;2022-09-09T04:07:01;3.80;;;2.38;;
50769;SDS011;36740;48.698;11.472;2022-09-09T04:09:47;5.18;;;1.88;;
50769;SDS011;36740;48.698;11.472;2022-09-09T04:12:33;6.28;;;2.40;;
50769;SDS011;36740;48.698;11.472;2022-09-09T04:15:20;3.33;;;2.13;;
50769;SDS011;36740;48.698;11.472;2022-09-09T04:18:05;1.83;;;1.10;;
50769;SDS011;36740;48.698;11.472;2022-09-09T04:20:52;2.60;;;1.65;;
50769;SDS011;36740;48.698;11.472;2022-09-09T04:23:38;7.07;;;2.30;;
50769;SDS011;36740;48.698;11.472;2022-09-09T04:26:24;3.53;;;2.25;;
50769;SDS011;36740;48.698;11.472;2022-09-09T04:29:09;2.75;;;1.85;;
50769;SDS011;36740;48.698;11.472;2022-09-09T04:31:55;1.65;;;1.50;;
50769;SDS011;36740;48.698;11.472;2022-09-09T04:34:41;4.63;;;1.55;;
50769;SDS011;36740;48.698;11.472;2022-09-09T04:37:27;4.38;;;2.15;;
50769;SDS011;36740;48.698;11.472;2022-09-09T04:40:12;2.08;;;1.83;;
50769;SDS011;36740;48.698;11.472;2022-09-09T04:42:58;2.65;;;1.88;;
50769;SDS011;36740;48.698;11.472;2022-09-09T04:45:46;6.22;;;2.45;;
50769;SDS011;36740;48.698;11.472;2022-09-09T04:48:32;2.67;;;1.98;;
50769;SDS011;36740;48.698;11.472;2022-09-09T04:51:18;2.97;;;2.33;;
50769;SDS011;36740;48.698;11.472;2022-09-09T04:54:04;2.97;;;1.88;;
50769;SDS011;36740;48.698;11.472;2022-09-09T04:56:51;2.63;;;1.77;;
50769;SDS011;36740;48.698;11.472;2022-09-09T04:59:36;2.22;;;1.77;;
50769;SDS011;36740;48.698;11.472;2022-09-09T05:02:22;2.42;;;2.15;;
50769;SDS011;36740;48.698;11.472;2022-09-09T05:05:08;4.93;;;2.55;;
50769;SDS011;36740;48.698;11.472;2022-09-09T05:07:54;6.20;;;3.35;;
50769;SDS011;36740;48.698;11.472;2022-09-09T05:10:39;7.25;;;2.65;;
50769;SDS011;36740;48.698;11.472;2022-09-09T05:13:27;3.67;;;1.90;;
50769;SDS011;36740;48.698;11.472;2022-09-09T05:16:13;3.78;;;2.05;;
50769;SDS011;36740;48.698;11.472;2022-09-09T05:18:59;7.65;;;2.13;;
50769;SDS011;36740;48.698;11.472;2022-09-09T05:21:45;2.85;;;2.05;;
50769;SDS011;36740;48.698;11.472;2022-09-09T05:24:31;3.22;;;2.08;;
50769;SDS011;36740;48.698;11.472;2022-09-09T05:27:18;6.63;;;2.55;;
50769;SDS011;36740;48.698;11.472;2022-09-09T05:30:04;2.45;;;1.90;;
50769;SDS011;36740;48.698;11.472;2022-09-09T05:32:50;4.35;;;2.47;;
50769;SDS011;36740;48.698;11.472;2022-09-09T05:35:36;1.67;;;1.23;;
50769;SDS011;36740;48.698;11.472;2022-09-09T05:38:23;1.85;;;1.50;;
50769;SDS011;36740;48.698;11.472;2022-09-09T05:41:10;3.92;;;2.78;;
50769;SDS011;36740;48.698;11.472;2022-09-09T05:43:56;3.25;;;2.47;;
50769;SDS011;36740;48.698;11.472;2022-09-09T05:46:44;5.18;;;2.92;;
50769;SDS011;36740;48.698;11.472;2022-09-09T05:49:30;1.98;;;1.60;;
50769;SDS011;36740;48.698;11.472;2022-09-09T05:52:15;2.38;;;1.92;;
50769;SDS011;36740;48.698;11.472;2022-09-09T05:55:01;2.65;;;2.03;;
50769;SDS011;36740;48.698;11.472;2022-09-09T05:57:50;2.72;;;1.92;;
50769;SDS011;36740;48.698;11.472;2022-09-09T06:00:37;5.05;;;2.33;;
50769;SDS011;36740;48.698;11.472;2022-09-09T06:03:23;7.05;;;2.17;;
50769;SDS011;36740;48.698;11.472;2022-09-09T06:06:12;2.53;;;1.90;;
50769;SDS011;36740;48.698;11.472;2022-09-09T06:11:44;3.85;;;2.60;;
50769;SDS011;36740;48.698;11.472;2022-09-09T06:14:30;3.33;;;1.98;;
50769;SDS011;36740;48.698;11.472;2022-09-09T06:17:16;5.25;;;2.85;;
50769;SDS011;36740;48.698;11.472;2022-09-09T06:20:02;4.43;;;2.70;;
50769;SDS011;36740;48.698;11.472;2022-09-09T06:22:48;4.50;;;2.78;;
50769;SDS011;36740;48.698;11.472;2022-09-09T06:25:34;2.50;;;1.95;;
50769;SDS011;36740;48.698;11.472;2022-09-09T06:28:19;5.90;;;3.50;;
50769;SDS011;36740;48.698;11.472;2022-09-09T06:31:06;5.60;;;2.75;;
50769;SDS011;36740;48.698;11.472;2022-09-09T06:33:53;5.60;;;3.65;;
50769;SDS011;36740;48.698;11.472;2022-09-09T06:36:39;9.68;;;4.38;;
50769;SDS011;36740;48.698;11.472;2022-09-09T06:39:24;7.53;;;3.42;;
50769;SDS011;36740;48.698;11.472;2022-09-09T06:42:11;7.13;;;4.13;;
50769;SDS011;36740;48.698;11.472;2022-09-09T06:44:56;9.68;;;4.53;;
50769;SDS011;36740;48.698;11.472;2022-09-09T06:47:42;5.30;;;3.33;;
50769;SDS011;36740;48.698;11.472;2022-09-09T06:50:28;4.68;;;3.03;;
50769;SDS011;36740;48.698;11.472;2022-09-09T06:53:15;6.25;;;3.38;;
50769;SDS011;36740;48.698;11.472;2022-09-09T06:58:57;10.98;;;2.42;;
50769;SDS011;36740;48.698;11.472;2022-09-09T07:01:49;4.40;;;2.90;;
50769;SDS011;36740;48.698;11.472;2022-09-09T07:04:37;4.00;;;2.80;;
50769;SDS011;36740;48.698;11.472;2022-09-09T07:07:22;2.20;;;2.00;;
50769;SDS011;36740;48.698;11.472;2022-09-09T07:10:10;4.00;;;2.58;;
50769;SDS011;36740;48.698;11.472;2022-09-09T07:12:55;14.88;;;3.55;;
50769;SDS011;36740;48.698;11.472;2022-09-09T07:15:41;3.95;;;2.90;;
50769;SDS011;36740;48.698;11.472;2022-09-09T07:18:27;3.20;;;2.28;;
50769;SDS011;36740;48.698;11.472;2022-09-09T07:21:13;5.85;;;3.42;;
50769;SDS011;36740;48.698;11.472;2022-09-09T07:23:59;4.00;;;2.78;;
50769;SDS011;36740;48.698;11.472;2022-09-09T07:26:45;3.60;;;2.10;;
50769;SDS011;36740;48.698;11.472;2022-09-09T07:29:31;5.07;;;2.58;;
50769;SDS011;36740;48.698;11.472;2022-09-09T07:32:17;4.97;;;3.22;;
50769;SDS011;36740;48.698;11.472;2022-09-09T07:35:03;4.80;;;3.08;;
50769;SDS011;36740;48.698;11.472;2022-09-09T07:37:48;6.32;;;2.33;;
50769;SDS011;36740;48.698;11.472;2022-09-09T07:40:34;7.50;;;5.15;;
50769;SDS011;36740;48.698;11.472;2022-09-09T07:43:25;12.43;;;5.35;;
50769;SDS011;36740;48.698;11.472;2022-09-09T07:46:11;6.93;;;2.92;;
50769;SDS011;36740;48.698;11.472;2022-09-09T07:48:57;6.45;;;2.70;;
50769;SDS011;36740;48.698;11.472;2022-09-09T07:51:44;7.85;;;3.08;;
50769;SDS011;36740;48.698;11.472;2022-09-09T07:54:30;5.43;;;2.70;;
50769;SDS011;36740;48.698;11.472;2022-09-09T07:57:16;2.53;;;1.63;;
50769;SDS011;36740;48.698;11.472;2022-09-09T08:00:02;4.93;;;2.55;;
50769;SDS011;36740;48.698;11.472;2022-09-09T08:02:48;2.97;;;2.33;;
50769;SDS011;36740;48.698;11.472;2022-09-09T08:05:34;7.53;;;2.55;;
50769;SDS011;36740;48.698;11.472;2022-09-09T08:08:19;3.03;;;2.47;;
50769;SDS011;36740;48.698;11.472;2022-09-09T08:11:09;3.88;;;2.15;;
50769;SDS011;36740;48.698;11.472;2022-09-09T08:13:55;4.82;;;2.50;;
50769;SDS011;36740;48.698;11.472;2022-09-09T08:16:45;4.05;;;2.83;;
50769;SDS011;36740;48.698;11.472;2022-09-09T08:19:31;7.35;;;3.90;;
50769;SDS011;36740;48.698;11.472;2022-09-09T08:22:19;4.72;;;2.40;;
50769;SDS011;36740;48.698;11.472;2022-09-09T08:25:05;6.10;;;2.70;;
50769;SDS011;36740;48.698;11.472;2022-09-09T08:27:53;8.23;;;3.65;;
50769;SDS011;36740;48.698;11.472;2022-09-09T08:30:38;3.83;;;2.38;;
50769;SDS011;36740;48.698;11.472;2022-09-09T08:33:24;2.30;;;2.08;;
50769;SDS011;36740;48.698;11.472;2022-09-09T08:36:12;3.28;;;1.77;;
50769;SDS011;36740;48.698;11.472;2022-09-09T08:38:58;3.25;;;1.45;;
50769;SDS011;36740;48.698;11.472;2022-09-09T08:47:54;1.02;;;0.98;;
50769;SDS011;36740;48.698;11.472;2022-09-09T08:50:42;1.95;;;1.75;;
50769;SDS011;36740;48.698;11.472;2022-09-09T08:53:29;2.60;;;1.55;;
50769;SDS011;36740;48.698;11.472;2022-09-09T08:56:21;3.47;;;2.22;;
50769;SDS011;36740;48.698;11.472;2022-09-09T08:59:07;5.22;;;2.28;;
50769;SDS011;36740;48.698;11.472;2022-09-09T09:13:20;1.67;;;1.58;;
50769;SDS011;36740;48.698;11.472;2022-09-09T09:19:18;11.02;;;3.80;;
50769;SDS011;36740;48.698;11.472;2022-09-09T09:22:10;1.20;;;1.17;;
50769;SDS011;36740;48.698;11.472;2022-09-09T09:25:19;8.90;;;1.23;;
50769;SDS011;36740;48.698;11.472;2022-09-09T09:28:19;1.85;;;1.60;;
50769;SDS011;36740;48.698;11.472;2022-09-09T09:31:09;3.60;;;1.08;;
50769;SDS011;36740;48.698;11.472;2022-09-09T09:33:56;3.00;;;1.25;;
50769;SDS011;36740;48.698;11.472;2022-09-09T09:36:44;1.38;;;1.27;;
50769;SDS011;36740;48.698;11.472;2022-09-09T09:39:33;5.63;;;1.30;;
50769;SDS011;36740;48.698;11.472;2022-09-09T09:42:23;2.78;;;1.17;;
50769;SDS011;36740;48.698;11.472;2022-09-09T09:45:14;1.80;;;1.45;;
50769;SDS011;36740;48.698;11.472;2022-09-09T09:48:08;1.20;;;1.10;;
50769;SDS011;36740;48.698;11.472;2022-09-09T09:50:57;1.52;;;1.23;;
50769;SDS011;36740;48.698;11.472;2022-09-09T09:53:43;1.30;;;0.90;;
50769;SDS011;36740;48.698;11.472;2022-09-09T09:56:29;3.85;;;1.58;;
50769;SDS011;36740;48.698;11.472;2022-09-09T09:59:21;1.00;;;1.00;;
50769;SDS011;36740;48.698;11.472;2022-09-09T10:02:15;0.68;;;0.68;;
50769;SDS011;36740;48.698;11.472;2022-09-09T10:05:03;1.30;;;1.00;;
50769;SDS011;36740;48.698;11.472;2022-09-09T10:08:08;1.10;;;1.00;;
50769;SDS011;36740;48.698;11.472;2022-09-09T10:23:16;1.67;;;1.52;;
50769;SDS011;36740;48.698;11.472;2022-09-09T10:29:18;4.57;;;1.20;;
50769;SDS011;36740;48.698;11.472;2022-09-09T10:34:55;1.20;;;0.80;;
50769;SDS011;36740;48.698;11.472;2022-09-09T10:37:51;0.88;;;0.77;;
50769;SDS011;36740;48.698;11.472;2022-09-09T10:41:22;2.92;;;1.33;;
50769;SDS011;36740;48.698;11.472;2022-09-09T10:44:11;2.63;;;2.10;;
50769;SDS011;36740;48.698;11.472;2022-09-09T10:50:19;2.67;;;2.08;;
50769;SDS011;36740;48.698;11.472;2022-09-09T10:56:13;3.33;;;1.23;;
50769;SDS011;36740;48.698;11.472;2022-09-09T10:59:12;1.20;;;1.10;;
50769;SDS011;36740;48.698;11.472;2022-09-09T11:02:11;2.33;;;1.27;;
50769;SDS011;36740;48.698;11.472;2022-09-09T11:08:09;4.82;;;1.40;;
50769;SDS011;36740;48.698;11.472;2022-09-09T11:13:48;6.47;;;2.20;;
50769;SDS011;36740;48.698;11.472;2022-09-09T11:16:39;2.13;;;1.42;;
50769;SDS011;36740;48.698;11.472;2022-09-09T11:19:29;2.10;;;1.60;;
50769;SDS011;36740;48.698;11.472;2022-09-09T11:22:27;4.22;;;1.50;;
50769;SDS011;36740;48.698;11.472;2022-09-09T11:43:24;3.22;;;1.48;;
50769;SDS011;36740;48.698;11.472;2022-09-09T11:46:10;2.40;;;1.58;;
50769;SDS011;36740;48.698;11.472;2022-09-09T11:48:58;2.38;;;1.42;;
50769;SDS011;36740;48.698;11.472;2022-09-09T11:51:45;1.58;;;1.45;;
50769;SDS011;36740;48.698;11.472;2022-09-09T11:54:34;5.10;;;1.50;;
50769;SDS011;36740;48.698;11.472;2022-09-09T11:57:34;1.90;;;1.75;;
50769;SDS011;36740;48.698;11.472;2022-09-09T12:03:34;4.10;;;1.67;;
50769;SDS011;36740;48.698;11.472;2022-09-09T12:06:26;3.47;;;1.70;;
50769;SDS011;36740;48.698;11.472;2022-09-09T12:17:57;2.08;;;1.40;;
50769;SDS011;36740;48.698;11.472;2022-09-09T12:20:52;4.38;;;1.60;;
50769;SDS011;36740;48.698;11.472;2022-09-09T12:23:43;2.25;;;1.20;;
50769;SDS011;36740;48.698;11.472;2022-09-09T12:26:41;1.85;;;1.33;;
50769;SDS011;36740;48.698;11.472;2022-09-09T12:32:47;3.22;;;1.73;;
50769;SDS011;36740;48.698;11.472;2022-09-09T12:35:33;2.67;;;1.65;;
50769;SDS011;36740;48.698;11.472;2022-09-09T12:38:24;5.15;;;2.35;;
50769;SDS011;36740;48.698;11.472;2022-09-09T12:44:06;5.28;;;2.53;;
50769;SDS011;36740;48.698;11.472;2022-09-09T12:46:54;5.85;;;1.45;;
50769;SDS011;36740;48.698;11.472;2022-09-09T12:49:41;1.92;;;1.60;;
50769;SDS011;36740;48.698;11.472;2022-09-09T12:52:31;3.63;;;1.60;;
50769;SDS011;36740;48.698;11.472;2022-09-09T12:55:19;2.85;;;2.17;;
50769;SDS011;36740;48.698;11.472;2022-09-09T12:58:06;6.15;;;2.38;;
50769;SDS011;36740;48.698;11.472;2022-09-09T13:00:53;2.17;;;1.40;;
50769;SDS011;36740;48.698;11.472;2022-09-09T13:03:42;3.33;;;1.33;;
50769;SDS011;36740;48.698;11.472;2022-09-09T13:06:29;3.85;;;1.98;;
50769;SDS011;36740;48.698;11.472;2022-09-09T13:09:15;0.73;;;0.73;;
50769;SDS011;36740;48.698;11.472;2022-09-09T13:12:00;1.42;;;1.25;;
50769;SDS011;36740;48.698;11.472;2022-09-09T13:14:52;10.32;;;2.42;;
50769;SDS011;36740;48.698;11.472;2022-09-09T13:17:38;2.67;;;0.90;;
50769;SDS011;36740;48.698;11.472;2022-09-09T13:20:24;1.52;;;1.02;;
50769;SDS011;36740;48.698;11.472;2022-09-09T13:23:10;1.65;;;1.52;;
50769;SDS011;36740;48.698;11.472;2022-09-09T13:29:14;1.77;;;1.40;;
50769;SDS011;36740;48.698;11.472;2022-09-09T13:32:03;2.17;;;0.90;;
50769;SDS011;36740;48.698;11.472;2022-09-09T13:34:57;3.88;;;2.05;;
50769;SDS011;36740;48.698;11.472;2022-09-09T13:37:43;2.70;;;1.83;;
50769;SDS011;36740;48.698;11.472;2022-09-09T13:40:29;1.98;;;0.98;;
50769;SDS011;36740;48.698;11.472;2022-09-09T13:43:18;1.77;;;1.45;;
50769;SDS011;36740;48.698;11.472;2022-09-09T13:52:04;1.25;;;1.10;;
50769;SDS011;36740;48.698;11.472;2022-09-09T13:54:52;3.47;;;1.73;;
50769;SDS011;36740;48.698;11.472;2022-09-09T13:57:37;7.32;;;2.15;;
50769;SDS011;36740;48.698;11.472;2022-09-09T14:00:23;4.20;;;1.70;;
50769;SDS011;36740;48.698;11.472;2022-09-09T14:03:11;1.98;;;1.20;;
50769;SDS011;36740;48.698;11.472;2022-09-09T14:05:57;4.28;;;1.45;;
50769;SDS011;36740;48.698;11.472;2022-09-09T14:08:43;10.77;;;1.80;;
50769;SDS011;36740;48.698;11.472;2022-09-09T14:11:35;3.22;;;1.33;;
50769;SDS011;36740;48.698;11.472;2022-09-09T14:14:32;4.07;;;1.40;;
50769;SDS011;36740;48.698;11.472;2022-09-09T14:17:18;2.17;;;1.65;;
50769;SDS011;36740;48.698;11.472;2022-09-09T14:20:04;1.55;;;1.33;;
50769;SDS011;36740;48.698;11.472;2022-09-09T14:22:54;3.40;;;1.13;;
50769;SDS011;36740;48.698;11.472;2022-09-09T14:25:40;1.17;;;1.08;;
50769;SDS011;36740;48.698;11.472;2022-09-09T14:28:26;3.90;;;2.20;;
50769;SDS011;36740;48.698;11.472;2022-09-09T14:31:13;2.97;;;0.90;;
50769;SDS011;36740;48.698;11.472;2022-09-09T14:33:59;2.72;;;1.27;;
50769;SDS011;36740;48.698;11.472;2022-09-09T14:36:44;6.07;;;1.40;;
50769;SDS011;36740;48.698;11.472;2022-09-09T14:39:31;3.28;;;1.73;;
50769;SDS011;36740;48.698;11.472;2022-09-09T14:42:16;3.05;;;1.30;;
50769;SDS011;36740;48.698;11.472;2022-09-09T14:45:02;2.17;;;1.30;;
50769;SDS011;36740;48.698;11.472;2022-09-09T14:47:49;5.22;;;1.55;;
50769;SDS011;36740;48.698;11.472;2022-09-09T14:50:34;3.05;;;1.15;;
50769;SDS011;36740;48.698;11.472;2022-09-09T14:53:25;2.50;;;1.42;;
50769;SDS011;36740;48.698;11.472;2022-09-09T14:56:12;1.67;;;1.48;;
50769;SDS011;36740;48.698;11.472;2022-09-09T14:58:58;4.68;;;1.13;;
50769;SDS011;36740;48.698;11.472;2022-09-09T15:01:46;1.00;;;0.82;;
50769;SDS011;36740;48.698;11.472;2022-09-09T15:04:31;2.88;;;1.45;;
50769;SDS011;36740;48.698;11.472;2022-09-09T15:07:17;3.47;;;1.25;;
50769;SDS011;36740;48.698;11.472;2022-09-09T15:10:04;5.40;;;2.08;;
50769;SDS011;36740;48.698;11.472;2022-09-09T15:12:50;1.27;;;1.13;;
50769;SDS011;36740;48.698;11.472;2022-09-09T15:15:36;1.17;;;0.93;;
50769;SDS011;36740;48.698;11.472;2022-09-09T15:18:21;5.18;;;1.75;;
50769;SDS011;36740;48.698;11.472;2022-09-09T15:21:07;5.10;;;1.58;;
50769;SDS011;36740;48.698;11.472;2022-09-09T15:23:53;3.20;;;1.23;;
50769;SDS011;36740;48.698;11.472;2022-09-09T15:26:38;1.42;;;1.20;;
50769;SDS011;36740;48.698;11.472;2022-09-09T15:29:24;2.97;;;1.85;;
50769;SDS011;36740;48.698;11.472;2022-09-09T15:32:10;6.35;;;2.47;;
50769;SDS011;36740;48.698;11.472;2022-09-09T15:34:56;1.77;;;0.98;;
50769;SDS011;36740;48.698;11.472;2022-09-09T15:37:41;2.47;;;1.13;;
50769;SDS011;36740;48.698;11.472;2022-09-09T15:40:27;1.75;;;1.02;;
50769;SDS011;36740;48.698;11.472;2022-09-09T15:43:15;2.97;;;1.27;;
50769;SDS011;36740;48.698;11.472;2022-09-09T15:46:05;2.97;;;1.27;;
50769;SDS011;36740;48.698;11.472;2022-09-09T15:48:55;5.32;;;1.80;;
50769;SDS011;36740;48.698;11.472;2022-09-09T15:51:42;5.35;;;1.90;;
50769;SDS011;36740;48.698;11.472;2022-09-09T15:54:28;1.58;;;1.30;;
50769;SDS011;36740;48.698;11.472;2022-09-09T15:57:15;4.03;;;1.27;;
50769;SDS011;36740;48.698;11.472;2022-09-09T16:00:02;3.28;;;1.08;;
50769;SDS011;36740;48.698;11.472;2022-09-09T16:02:49;3.05;;;1.02;;
50769;SDS011;36740;48.698;11.472;2022-09-09T16:05:34;1.67;;;1.10;;
50769;SDS011;36740;48.698;11.472;2022-09-09T16:08:20;1.33;;;1.15;;
50769;SDS011;36740;48.698;11.472;2022-09-09T16:11:11;1.10;;;0.80;;
50769;SDS011;36740;48.698;11.472;2022-09-09T16:13:58;1.23;;;1.10;;
50769;SDS011;36740;48.698;11.472;2022-09-09T16:16:44;1.92;;;1.08;;
50769;SDS011;36740;48.698;11.472;2022-09-09T16:19:29;1.13;;;1.00;;
50769;SDS011;36740;48.698;11.472;2022-09-09T16:22:15;3.58;;;0.80;;
50769;SDS011;36740;48.698;11.472;2022-09-09T16:25:01;2.63;;;1.30;;
50769;SDS011;36740;48.698;11.472;2022-09-09T16:27:47;1.20;;;0.95;;
50769;SDS011;36740;48.698;11.472;2022-09-09T16:30:33;0.90;;;0.90;;
50769;SDS011;36740;48.698;11.472;2022-09-09T16:33:18;1.52;;;0.70;;
50769;SDS011;36740;48.698;11.472;2022-09-09T16:36:05;2.45;;;1.05;;
50769;SDS011;36740;48.698;11.472;2022-09-09T16:38:54;1.92;;;1.10;;
50769;SDS011;36740;48.698;11.472;2022-09-09T16:41:43;3.80;;;1.83;;
50769;SDS011;36740;48.698;11.472;2022-09-09T16:44:29;2.65;;;1.48;;
50769;SDS011;36740;48.698;11.472;2022-09-09T16:47:15;0.88;;;0.88;;
50769;SDS011;36740;48.698;11.472;2022-09-09T16:50:00;0.70;;;0.70;;
50769;SDS011;36740;48.698;11.472;2022-09-09T16:52:46;1.98;;;1.20;;
50769;SDS011;36740;48.698;11.472;2022-09-09T16:55:33;4.25;;;1.95;;
50769;SDS011;36740;48.698;11.472;2022-09-09T16:58:23;4.35;;;2.67;;
50769;SDS011;36740;48.698;11.472;2022-09-09T17:01:09;1.52;;;1.13;;
50769;SDS011;36740;48.698;11.472;2022-09-09T17:03:57;2.85;;;1.98;;
50769;SDS011;36740;48.698;11.472;2022-09-09T17:06:45;2.28;;;1.30;;
50769;SDS011;36740;48.698;11.472;2022-09-09T17:09:31;1.83;;;0.95;;
50769;SDS011;36740;48.698;11.472;2022-09-09T17:12:17;1.45;;;1.23;;
50769;SDS011;36740;48.698;11.472;2022-09-09T17:15:03;7.28;;;1.73;;
50769;SDS011;36740;48.698;11.472;2022-09-09T17:17:48;1.42;;;1.30;;
50769;SDS011;36740;48.698;11.472;2022-09-09T17:20:36;1.20;;;1.00;;
50769;SDS011;36740;48.698;11.472;2022-09-09T17:23:23;1.02;;;0.98;;
50769;SDS011;36740;48.698;11.472;2022-09-09T17:26:13;1.33;;;1.20;;
50769;SDS011;36740;48.698;11.472;2022-09-09T17:29:00;2.13;;;1.10;;
50769;SDS011;36740;48.698;11.472;2022-09-09T17:31:46;1.23;;;1.17;;
50769;SDS011;36740;48.698;11.472;2022-09-09T17:34:31;1.63;;;1.17;;
50769;SDS011;36740;48.698;11.472;2022-09-09T17:37:17;2.25;;;1.38;;
50769;SDS011;36740;48.698;11.472;2022-09-09T17:40:03;2.78;;;1.95;;
50769;SDS011;36740;48.698;11.472;2022-09-09T17:42:48;5.35;;;1.67;;
50769;SDS011;36740;48.698;11.472;2022-09-09T17:45:34;1.17;;;1.08;;
50769;SDS011;36740;48.698;11.472;2022-09-09T17:48:20;1.83;;;1.55;;
50769;SDS011;36740;48.698;11.472;2022-09-09T17:51:06;0.88;;;0.77;;
50769;SDS011;36740;48.698;11.472;2022-09-09T17:53:55;1.52;;;1.20;;
50769;SDS011;36740;48.698;11.472;2022-09-09T17:56:40;1.33;;;1.10;;
50769;SDS011;36740;48.698;11.472;2022-09-09T17:59:26;0.98;;;0.93;;
50769;SDS011;36740;48.698;11.472;2022-09-09T18:02:12;1.63;;;1.10;;
50769;SDS011;36740;48.698;11.472;2022-09-09T18:04:58;4.15;;;1.45;;
50769;SDS011;36740;48.698;11.472;2022-09-09T18:07:44;1.58;;;1.00;;
50769;SDS011;36740;48.698;11.472;2022-09-09T18:10:29;1.13;;;1.02;;
50769;SDS011;36740;48.698;11.472;2022-09-09T18:13:15;2.60;;;1.38;;
50769;SDS011;36740;48.698;11.472;2022-09-09T18:16:05;2.17;;;1.42;;
50769;SDS011;36740;48.698;11.472;2022-09-09T18:18:51;3.40;;;1.45;;
50769;SDS011;36740;48.698;11.472;2022-09-09T18:21:37;1.52;;;1.10;;
50769;SDS011;36740;48.698;11.472;2022-09-09T18:24:23;1.10;;;1.00;;
50769;SDS011;36740;48.698;11.472;2022-09-09T18:27:09;4.30;;;0.95;;
50769;SDS011;36740;48.698;11.472;2022-09-09T18:29:55;2.00;;;1.40;;
50769;SDS011;36740;48.698;11.472;2022-09-09T18:32:41;1.30;;;1.20;;
50769;SDS011;36740;48.698;11.472;2022-09-09T18:35:26;0.85;;;0.85;;
50769;SDS011;36740;48.698;11.472;2022-09-09T18:38:12;2.08;;;1.23;;
50769;SDS011;36740;48.698;11.472;2022-09-09T18:40:58;3.25;;;1.30;;
50769;SDS011;36740;48.698;11.472;2022-09-09T18:43:43;1.42;;;0.90;;
50769;SDS011;36740;48.698;11.472;2022-09-09T18:46:30;1.33;;;1.25;;